Time;durP1;ratioP1;P1;durP2;ratioP2;P2;SDS_P1;SDS_P2;PMS_P1;PMS_P2;Temp;Humidity;BMP_temperature;BMP_pressure;BME280_temperature;BME280_humidity;BME280_pressure;Samples;Min_cycle;Max_cycle;Signal;HPM_P1;HPM_P2
2023/02/02 00:00:00;;;;;;;1.2;1.2;;;;;;;7.5;100.0;101890;;;;
2023/02/02 00:01:00;;;;;;;1.2;1.2;;;;;;;7.5;100.0;101890;;;;
2023/02/02 00:02:01;;;;;;;1.2;1.2;;;;;;;7.5;100.0;101890;;;;
2023/02/02 00:03:00;;;;;;;1.2;1.2;;;;;;;7.5;100.0;101890;;;;
2023/02/02 00:04:00;;;;;;;1.2;1.2;;;;;;;7.5;100.0;101890;;;;
2023/02/02 00:05:00;;;;;;;1.2;1.2;;;;;;;7.6;100.0;101890;;;;
2023/02/02 00:06:01;;;;;;;1.2;1.2;;;;;;;7.6;100.0;101890;;;;
2023/02/02 00:07:01;;;;;;;1.2;1.2;;;;;;;7.6;100.0;101890;;;;
2023/02/02 00:08:00;;;;;;;1.2;1.2;;;;;;;7.6;100.0;101890;;;;
2023/02/02 00:09:01;;;;;;;1.3;1.3;;;;;;;7.5;100.0;101880;;;;
2023/02/02 00:10:00;;;;;;;1.3;1.3;;;;;;;7.5;100.0;101880;;;;
2023/02/02 00:11:00;;;;;;;1.3;1.3;;;;;;;7.6;100.0;101890;;;;
2023/02/02 00:12:00;;;;;;;1.3;1.3;;;;;;;7.6;100.0;101890;;;;
2023/02/02 00:13:00;;;;;;;1.3;1.3;;;;;;;7.5;100.0;101890;;;;
2023/02/02 00:14:00;;;;;;;1.3;1.3;;;;;;;7.5;100.0;101890;;;;
2023/02/02 00:15:00;;;;;;;1.3;1.3;;;;;;;7.6;100.0;101890;;;;
2023/02/02 00:16:10;;;;;;;1.3;1.3;;;;;;;7.6;100.0;101890;;;;
2023/02/02 00:17:00;;;;;;;1.3;1.3;;;;;;;7.6;100.0;101890;;;;
2023/02/02 00:18:00;;;;;;;1.3;1.3;;;;;;;7.6;100.0;101890;;;;
2023/02/02 00:19:03;;;;;;;1.3;1.3;;;;;;;7.6;100.0;101890;;;;
2023/02/02 00:20:00;;;;;;;1.3;1.3;;;;;;;7.6;100.0;101890;;;;
2023/02/02 00:21:00;;;;;;;1.3;1.3;;;;;;;7.6;100.0;101880;;;;
2023/02/02 00:22:00;;;;;;;1.3;1.3;;;;;;;7.6;100.0;101880;;;;
2023/02/02 00:23:00;;;;;;;1.3;1.3;;;;;;;7.6;100.0;101890;;;;
2023/02/02 00:24:00;;;;;;;1.3;1.3;;;;;;;7.6;100.0;101890;;;;
2023/02/02 00:25:00;;;;;;;1.3;1.3;;;;;;;7.6;100.0;101890;;;;
2023/02/02 00:26:00;;;;;;;1.3;1.3;;;;;;;7.6;100.0;101890;;;;
2023/02/02 00:27:00;;;;;;;1.3;1.3;;;;;;;7.6;100.0;101890;;;;
2023/02/02 00:28:00;;;;;;;1.3;1.3;;;;;;;7.6;100.0;101890;;;;
2023/02/02 00:29:00;;;;;;;1.1;1.1;;;;;;;7.7;100.0;101890;;;;
2023/02/02 00:30:00;;;;;;;1.1;1.1;;;;;;;7.7;100.0;101890;;;;
2023/02/02 00:31:00;;;;;;;1.1;1.1;;;;;;;7.7;100.0;101900;;;;
2023/02/02 00:32:00;;;;;;;1.1;1.1;;;;;;;7.7;100.0;101900;;;;
2023/02/02 00:33:00;;;;;;;1.1;1.1;;;;;;;7.5;100.0;101890;;;;
2023/02/02 00:34:00;;;;;;;1.1;1.1;;;;;;;7.5;100.0;101890;;;;
2023/02/02 00:35:00;;;;;;;1.1;1.1;;;;;;;7.4;100.0;101890;;;;
2023/02/02 00:36:00;;;;;;;1.1;1.1;;;;;;;7.4;100.0;101890;;;;
2023/02/02 00:37:00;;;;;;;1.1;1.1;;;;;;;7.4;100.0;101890;;;;
2023/02/02 00:38:00;;;;;;;1.1;1.1;;;;;;;7.4;100.0;101890;;;;
2023/02/02 00:39:00;;;;;;;1.1;1.1;;;;;;;7.5;100.0;101890;;;;
2023/02/02 00:40:00;;;;;;;1.1;1.1;;;;;;;7.5;100.0;101890;;;;
2023/02/02 00:41:00;;;;;;;1.1;1.1;;;;;;;7.5;100.0;101900;;;;
2023/02/02 00:42:00;;;;;;;1.1;1.1;;;;;;;7.5;100.0;101900;;;;
2023/02/02 00:43:00;;;;;;;1.1;1.1;;;;;;;7.6;100.0;101900;;;;
2023/02/02 00:46:00;;;;;;;1.1;1.1;;;;;;;7.6;100.0;101900;;;;
2023/02/02 00:47:00;;;;;;;1.1;1.1;;;;;;;7.6;100.0;101890;;;;
2023/02/02 00:48:00;;;;;;;1.1;1.1;;;;;;;7.6;100.0;101890;;;;
2023/02/02 00:49:00;;;;;;;1.2;1.2;;;;;;;7.5;100.0;101890;;;;
2023/02/02 00:50:00;;;;;;;1.2;1.2;;;;;;;7.5;100.0;101890;;;;
2023/02/02 00:51:01;;;;;;;1.2;1.2;;;;;;;7.5;100.0;101900;;;;
2023/02/02 00:52:00;;;;;;;1.2;1.2;;;;;;;7.5;100.0;101900;;;;
2023/02/02 00:53:00;;;;;;;1.2;1.2;;;;;;;7.5;100.0;101900;;;;
2023/02/02 00:54:00;;;;;;;1.2;1.2;;;;;;;7.5;100.0;101900;;;;
2023/02/02 00:55:00;;;;;;;1.2;1.2;;;;;;;7.6;100.0;101890;;;;
2023/02/02 00:56:00;;;;;;;1.2;1.2;;;;;;;7.6;100.0;101890;;;;
2023/02/02 00:57:00;;;;;;;1.2;1.2;;;;;;;7.5;100.0;101890;;;;
2023/02/02 00:58:00;;;;;;;1.2;1.2;;;;;;;7.5;100.0;101890;;;;
2023/02/02 00:59:00;;;;;;;1.2;1.2;;;;;;;7.4;100.0;101900;;;;
2023/02/02 01:00:00;;;;;;;1.2;1.2;;;;;;;7.4;100.0;101900;;;;
2023/02/02 01:01:00;;;;;;;1.2;1.2;;;;;;;7.5;100.0;101890;;;;
2023/02/02 01:02:00;;;;;;;1.2;1.2;;;;;;;7.5;100.0;101890;;;;
2023/02/02 01:03:03;;;;;;;1.2;1.2;;;;;;;7.6;100.0;101900;;;;
2023/02/02 01:04:00;;;;;;;1.2;1.2;;;;;;;7.6;100.0;101900;;;;
2023/02/02 01:05:00;;;;;;;1.2;1.2;;;;;;;7.6;100.0;101890;;;;
2023/02/02 01:06:00;;;;;;;1.2;1.2;;;;;;;7.6;100.0;101890;;;;
2023/02/02 01:07:00;;;;;;;1.2;1.2;;;;;;;7.6;100.0;101890;;;;
2023/02/02 01:08:00;;;;;;;1.2;1.2;;;;;;;7.6;100.0;101890;;;;
2023/02/02 01:09:00;;;;;;;1.2;1.2;;;;;;;7.6;100.0;101890;;;;
2023/02/02 01:10:00;;;;;;;1.2;1.2;;;;;;;7.6;100.0;101890;;;;
2023/02/02 01:11:00;;;;;;;1.2;1.2;;;;;;;7.5;100.0;101890;;;;
2023/02/02 01:12:00;;;;;;;1.2;1.2;;;;;;;7.5;100.0;101890;;;;
2023/02/02 01:13:00;;;;;;;1.2;1.2;;;;;;;7.6;100.0;101890;;;;
2023/02/02 01:14:00;;;;;;;1.2;1.2;;;;;;;7.6;100.0;101890;;;;
2023/02/02 01:15:01;;;;;;;1.2;1.2;;;;;;;7.6;100.0;101890;;;;
2023/02/02 01:16:01;;;;;;;1.2;1.2;;;;;;;7.6;100.0;101890;;;;
2023/02/02 01:17:00;;;;;;;1.2;1.2;;;;;;;7.6;100.0;101900;;;;
2023/02/02 01:18:00;;;;;;;1.2;1.2;;;;;;;7.6;100.0;101900;;;;
2023/02/02 01:19:00;;;;;;;1.2;1.2;;;;;;;7.6;100.0;101900;;;;
2023/02/02 01:20:00;;;;;;;1.2;1.2;;;;;;;7.6;100.0;101900;;;;
2023/02/02 01:21:02;;;;;;;1.2;1.2;;;;;;;7.6;100.0;101890;;;;
2023/02/02 01:22:03;;;;;;;1.2;1.2;;;;;;;7.6;100.0;101890;;;;
2023/02/02 01:23:00;;;;;;;1.2;1.2;;;;;;;7.5;100.0;101890;;;;
2023/02/02 01:24:00;;;;;;;1.2;1.2;;;;;;;7.5;100.0;101890;;;;
2023/02/02 01:25:00;;;;;;;1.2;1.2;;;;;;;7.6;100.0;101890;;;;
2023/02/02 01:26:01;;;;;;;1.2;1.2;;;;;;;7.6;100.0;101890;;;;
2023/02/02 01:27:00;;;;;;;1.2;1.2;;;;;;;7.6;100.0;101890;;;;
2023/02/02 01:28:00;;;;;;;1.2;1.2;;;;;;;7.6;100.0;101890;;;;
2023/02/02 01:29:00;;;;;;;1.4;1.4;;;;;;;7.6;100.0;101890;;;;
2023/02/02 01:30:00;;;;;;;1.4;1.4;;;;;;;7.6;100.0;101890;;;;
2023/02/02 01:31:05;;;;;;;1.4;1.4;;;;;;;7.7;100.0;101890;;;;
2023/02/02 01:32:00;;;;;;;1.4;1.4;;;;;;;7.7;100.0;101890;;;;
2023/02/02 01:33:00;;;;;;;1.4;1.4;;;;;;;7.6;100.0;101890;;;;
2023/02/02 01:34:00;;;;;;;1.4;1.4;;;;;;;7.6;100.0;101890;;;;
2023/02/02 01:35:00;;;;;;;1.4;1.4;;;;;;;7.5;100.0;101890;;;;
2023/02/02 01:36:03;;;;;;;1.4;1.4;;;;;;;7.5;100.0;101890;;;;
2023/02/02 01:37:00;;;;;;;1.4;1.4;;;;;;;7.5;100.0;101890;;;;
2023/02/02 01:38:00;;;;;;;1.4;1.4;;;;;;;7.5;100.0;101890;;;;
2023/02/02 01:39:00;;;;;;;1.4;1.4;;;;;;;7.5;100.0;101890;;;;
2023/02/02 01:40:00;;;;;;;1.4;1.4;;;;;;;7.5;100.0;101890;;;;
2023/02/02 01:41:03;;;;;;;1.4;1.4;;;;;;;7.6;100.0;101890;;;;
2023/02/02 01:42:00;;;;;;;1.4;1.4;;;;;;;7.6;100.0;101890;;;;
2023/02/02 01:43:00;;;;;;;1.4;1.4;;;;;;;7.4;100.0;101890;;;;
2023/02/02 01:44:01;;;;;;;1.4;1.4;;;;;;;7.4;100.0;101890;;;;
2023/02/02 01:45:04;;;;;;;1.4;1.4;;;;;;;7.4;100.0;101900;;;;
2023/02/02 01:46:00;;;;;;;1.4;1.4;;;;;;;7.4;100.0;101900;;;;
2023/02/02 01:47:00;;;;;;;1.4;1.4;;;;;;;7.4;100.0;101900;;;;
2023/02/02 01:48:00;;;;;;;1.4;1.4;;;;;;;7.4;100.0;101900;;;;
2023/02/02 01:49:00;;;;;;;1.4;1.4;;;;;;;7.5;100.0;101890;;;;
2023/02/02 01:50:01;;;;;;;1.4;1.4;;;;;;;7.5;100.0;101890;;;;
2023/02/02 01:51:05;;;;;;;1.4;1.4;;;;;;;7.4;100.0;101900;;;;
2023/02/02 01:52:00;;;;;;;1.4;1.4;;;;;;;7.4;100.0;101900;;;;
2023/02/02 01:53:01;;;;;;;1.4;1.4;;;;;;;7.4;100.0;101900;;;;
2023/02/02 01:54:01;;;;;;;1.4;1.4;;;;;;;7.4;100.0;101900;;;;
2023/02/02 01:55:07;;;;;;;1.4;1.4;;;;;;;7.4;100.0;101900;;;;
2023/02/02 01:56:02;;;;;;;1.4;1.4;;;;;;;7.4;100.0;101900;;;;
2023/02/02 01:57:04;;;;;;;1.4;1.4;;;;;;;7.5;100.0;101900;;;;
2023/02/02 01:58:10;;;;;;;1.4;1.4;;;;;;;7.5;100.0;101900;;;;
2023/02/02 01:59:01;;;;;;;1.4;1.4;;;;;;;7.5;100.0;101900;;;;
2023/02/02 02:00:02;;;;;;;1.4;1.4;;;;;;;7.5;100.0;101900;;;;
2023/02/02 02:01:00;;;;;;;1.4;1.4;;;;;;;7.5;100.0;101900;;;;
2023/02/02 02:02:01;;;;;;;1.4;1.4;;;;;;;7.5;100.0;101900;;;;
2023/02/02 02:03:03;;;;;;;1.4;1.4;;;;;;;7.4;100.0;101900;;;;
2023/02/02 02:04:00;;;;;;;1.4;1.4;;;;;;;7.4;100.0;101900;;;;
2023/02/02 02:05:01;;;;;;;1.4;1.4;;;;;;;7.4;100.0;101910;;;;
2023/02/02 02:06:04;;;;;;;1.4;1.4;;;;;;;7.4;100.0;101910;;;;
2023/02/02 02:07:01;;;;;;;1.4;1.4;;;;;;;7.4;100.0;101900;;;;
2023/02/02 02:08:10;;;;;;;1.4;1.4;;;;;;;7.4;100.0;101900;;;;
2023/02/02 02:09:02;;;;;;;1.6;1.6;;;;;;;7.4;100.0;101900;;;;
2023/02/02 02:10:00;;;;;;;1.6;1.6;;;;;;;7.4;100.0;101900;;;;
2023/02/02 02:11:00;;;;;;;1.6;1.6;;;;;;;7.5;100.0;101900;;;;
2023/02/02 02:12:00;;;;;;;1.6;1.6;;;;;;;7.5;100.0;101900;;;;
2023/02/02 02:13:00;;;;;;;1.6;1.6;;;;;;;7.5;100.0;101900;;;;
2023/02/02 02:17:10;;;;;;;1.6;1.6;;;;;;;7.4;100.0;101910;;;;
2023/02/02 02:18:10;;;;;;;1.6;1.6;;;;;;;7.4;100.0;101910;;;;
2023/02/02 02:19:00;;;;;;;1.6;1.6;;;;;;;7.5;100.0;101900;;;;
2023/02/02 02:27:10;;;;;;;1.6;1.6;;;;;;;7.4;100.0;101900;;;;
2023/02/02 02:28:01;;;;;;;1.6;1.6;;;;;;;7.4;100.0;101900;;;;
2023/02/02 02:29:08;;;;;;;1.3;1.3;;;;;;;7.5;100.0;101890;;;;
2023/02/02 02:30:10;;;;;;;1.3;1.3;;;;;;;7.5;100.0;101890;;;;
2023/02/02 02:31:10;;;;;;;1.3;1.3;;;;;;;7.5;100.0;101890;;;;
2023/02/02 02:32:04;;;;;;;1.3;1.3;;;;;;;7.5;100.0;101890;;;;
2023/02/02 02:33:00;;;;;;;1.3;1.3;;;;;;;7.4;100.0;101890;;;;
2023/02/02 02:34:10;;;;;;;1.3;1.3;;;;;;;7.4;100.0;101890;;;;
2023/02/02 02:35:00;;;;;;;1.3;1.3;;;;;;;7.4;100.0;101900;;;;
2023/02/02 02:36:00;;;;;;;1.3;1.3;;;;;;;7.4;100.0;101900;;;;
2023/02/02 02:37:03;;;;;;;1.3;1.3;;;;;;;7.4;100.0;101900;;;;
2023/02/02 02:38:06;;;;;;;1.3;1.3;;;;;;;7.4;100.0;101900;;;;
2023/02/02 02:39:08;;;;;;;1.3;1.3;;;;;;;7.4;100.0;101900;;;;
2023/02/02 02:40:05;;;;;;;1.3;1.3;;;;;;;7.4;100.0;101900;;;;
2023/02/02 02:41:03;;;;;;;1.3;1.3;;;;;;;7.5;100.0;101900;;;;
2023/02/02 02:42:06;;;;;;;1.3;1.3;;;;;;;7.5;100.0;101900;;;;
2023/02/02 02:43:04;;;;;;;1.3;1.3;;;;;;;7.3;100.0;101900;;;;
2023/02/02 02:44:10;;;;;;;1.3;1.3;;;;;;;7.3;100.0;101900;;;;
2023/02/02 02:45:01;;;;;;;1.3;1.3;;;;;;;7.3;100.0;101900;;;;
2023/02/02 02:46:01;;;;;;;1.3;1.3;;;;;;;7.3;100.0;101900;;;;
2023/02/02 02:47:00;;;;;;;1.3;1.3;;;;;;;7.3;100.0;101900;;;;
2023/02/02 02:48:01;;;;;;;1.3;1.3;;;;;;;7.3;100.0;101900;;;;
2023/02/02 02:49:00;;;;;;;2.0;2.0;;;;;;;7.4;100.0;101900;;;;
2023/02/02 02:50:00;;;;;;;2.0;2.0;;;;;;;7.4;100.0;101900;;;;
2023/02/02 02:51:10;;;;;;;2.0;2.0;;;;;;;7.4;100.0;101900;;;;
2023/02/02 02:52:00;;;;;;;2.0;2.0;;;;;;;7.4;100.0;101900;;;;
2023/02/02 02:53:04;;;;;;;2.0;2.0;;;;;;;7.5;100.0;101900;;;;
2023/02/02 02:54:00;;;;;;;2.0;2.0;;;;;;;7.5;100.0;101900;;;;
2023/02/02 02:55:01;;;;;;;2.0;2.0;;;;;;;7.5;100.0;101910;;;;
2023/02/02 02:56:08;;;;;;;2.0;2.0;;;;;;;7.5;100.0;101910;;;;
2023/02/02 02:57:10;;;;;;;2.0;2.0;;;;;;;7.5;100.0;101900;;;;
2023/02/02 02:58:06;;;;;;;2.0;2.0;;;;;;;7.5;100.0;101900;;;;
2023/02/02 02:59:10;;;;;;;2.0;2.0;;;;;;;7.4;100.0;101910;;;;
2023/02/02 03:00:08;;;;;;;2.0;2.0;;;;;;;7.4;100.0;101910;;;;
2023/02/02 03:01:06;;;;;;;2.0;2.0;;;;;;;7.4;100.0;101910;;;;
2023/02/02 03:02:10;;;;;;;2.0;2.0;;;;;;;7.4;100.0;101910;;;;
2023/02/02 03:03:03;;;;;;;2.0;2.0;;;;;;;7.5;100.0;101900;;;;
2023/02/02 03:04:06;;;;;;;2.0;2.0;;;;;;;7.5;100.0;101900;;;;
2023/02/02 03:05:12;;;;;;;2.0;2.0;;;;;;;7.4;100.0;101900;;;;
2023/02/02 03:06:06;;;;;;;2.0;2.0;;;;;;;7.4;100.0;101900;;;;
2023/02/02 03:07:04;;;;;;;2.0;2.0;;;;;;;7.4;100.0;101900;;;;
2023/02/02 03:08:10;;;;;;;1.3;1.3;;;;;;;7.4;100.0;101900;;;;
2023/02/02 03:09:03;;;;;;;1.3;1.3;;;;;;;7.4;100.0;101900;;;;
2023/02/02 03:10:01;;;;;;;1.3;1.3;;;;;;;7.4;100.0;101900;;;;
2023/02/02 03:11:01;;;;;;;1.3;1.3;;;;;;;7.4;100.0;101900;;;;
2023/02/02 03:12:00;;;;;;;1.3;1.3;;;;;;;7.4;100.0;101900;;;;
2023/02/02 03:13:00;;;;;;;1.3;1.3;;;;;;;7.4;100.0;101900;;;;
2023/02/02 03:14:00;;;;;;;1.3;1.3;;;;;;;7.4;100.0;101900;;;;
2023/02/02 03:15:03;;;;;;;1.3;1.3;;;;;;;7.4;100.0;101890;;;;
2023/02/02 03:16:01;;;;;;;1.3;1.3;;;;;;;7.4;100.0;101890;;;;
2023/02/02 03:17:00;;;;;;;1.3;1.3;;;;;;;7.4;100.0;101890;;;;
2023/02/02 03:18:00;;;;;;;1.3;1.3;;;;;;;7.4;100.0;101890;;;;
2023/02/02 03:19:00;;;;;;;1.3;1.3;;;;;;;7.4;100.0;101900;;;;
2023/02/02 03:20:00;;;;;;;1.3;1.3;;;;;;;7.4;100.0;101900;;;;
2023/02/02 03:21:00;;;;;;;1.3;1.3;;;;;;;7.4;100.0;101890;;;;
2023/02/02 03:22:00;;;;;;;1.3;1.3;;;;;;;7.4;100.0;101890;;;;
2023/02/02 03:23:00;;;;;;;1.3;1.3;;;;;;;7.3;100.0;101890;;;;
2023/02/02 03:24:00;;;;;;;1.3;1.3;;;;;;;7.3;100.0;101890;;;;
2023/02/02 03:25:00;;;;;;;1.3;1.3;;;;;;;7.4;100.0;101890;;;;
2023/02/02 03:26:00;;;;;;;1.3;1.3;;;;;;;7.4;100.0;101890;;;;
2023/02/02 03:27:00;;;;;;;1.3;1.3;;;;;;;7.4;100.0;101880;;;;
2023/02/02 03:28:00;;;;;;;1.3;1.3;;;;;;;7.4;100.0;101880;;;;
2023/02/02 03:29:00;;;;;;;1.3;1.3;;;;;;;7.4;100.0;101890;;;;
2023/02/02 03:30:00;;;;;;;1.3;1.3;;;;;;;7.4;100.0;101890;;;;
2023/02/02 03:31:01;;;;;;;1.3;1.3;;;;;;;7.4;100.0;101890;;;;
2023/02/02 03:32:00;;;;;;;1.3;1.3;;;;;;;7.4;100.0;101890;;;;
2023/02/02 03:33:00;;;;;;;1.3;1.3;;;;;;;7.4;100.0;101890;;;;
2023/02/02 03:34:00;;;;;;;1.3;1.3;;;;;;;7.4;100.0;101890;;;;
2023/02/02 03:35:00;;;;;;;1.3;1.3;;;;;;;7.4;100.0;101890;;;;
2023/02/02 03:36:00;;;;;;;1.3;1.3;;;;;;;7.4;100.0;101890;;;;
2023/02/02 03:37:00;;;;;;;1.3;1.3;;;;;;;7.4;100.0;101890;;;;
2023/02/02 03:38:00;;;;;;;1.3;1.3;;;;;;;7.4;100.0;101890;;;;
2023/02/02 03:39:00;;;;;;;1.3;1.3;;;;;;;7.5;100.0;101890;;;;
2023/02/02 03:40:00;;;;;;;1.3;1.3;;;;;;;7.5;100.0;101890;;;;
2023/02/02 03:41:00;;;;;;;1.3;1.3;;;;;;;7.5;100.0;101880;;;;
2023/02/02 03:42:00;;;;;;;1.3;1.3;;;;;;;7.5;100.0;101880;;;;
2023/02/02 03:43:00;;;;;;;1.3;1.3;;;;;;;7.4;100.0;101880;;;;
2023/02/02 03:44:00;;;;;;;1.3;1.3;;;;;;;7.4;100.0;101880;;;;
2023/02/02 03:45:00;;;;;;;1.3;1.3;;;;;;;7.4;100.0;101890;;;;
2023/02/02 03:46:03;;;;;;;1.3;1.3;;;;;;;7.4;100.0;101890;;;;
2023/02/02 03:47:00;;;;;;;1.3;1.3;;;;;;;7.4;100.0;101890;;;;
2023/02/02 03:48:02;;;;;;;1.4;1.4;;;;;;;7.4;100.0;101890;;;;
2023/02/02 03:49:00;;;;;;;1.4;1.4;;;;;;;7.4;100.0;101890;;;;
2023/02/02 03:50:00;;;;;;;1.4;1.4;;;;;;;7.4;100.0;101890;;;;
2023/02/02 03:51:03;;;;;;;1.4;1.4;;;;;;;7.3;100.0;101890;;;;
2023/02/02 03:52:03;;;;;;;1.4;1.4;;;;;;;7.3;100.0;101890;;;;
2023/02/02 03:53:00;;;;;;;1.4;1.4;;;;;;;7.2;100.0;101900;;;;
2023/02/02 03:54:00;;;;;;;1.4;1.4;;;;;;;7.2;100.0;101900;;;;
2023/02/02 03:55:00;;;;;;;1.4;1.4;;;;;;;7.2;100.0;101900;;;;
2023/02/02 03:56:00;;;;;;;1.4;1.4;;;;;;;7.2;100.0;101900;;;;
2023/02/02 03:57:00;;;;;;;1.4;1.4;;;;;;;7.2;100.0;101910;;;;
2023/02/02 03:58:00;;;;;;;1.4;1.4;;;;;;;7.2;100.0;101910;;;;
2023/02/02 03:59:00;;;;;;;1.4;1.4;;;;;;;7.2;100.0;101910;;;;
2023/02/02 04:00:00;;;;;;;1.4;1.4;;;;;;;7.2;100.0;101910;;;;
2023/02/02 04:01:02;;;;;;;1.4;1.4;;;;;;;7.3;100.0;101920;;;;
2023/02/02 04:02:00;;;;;;;1.4;1.4;;;;;;;7.3;100.0;101920;;;;
2023/02/02 04:03:00;;;;;;;1.4;1.4;;;;;;;7.3;100.0;101920;;;;
2023/02/02 04:04:00;;;;;;;1.4;1.4;;;;;;;7.3;100.0;101920;;;;
2023/02/02 04:05:00;;;;;;;1.4;1.4;;;;;;;7.4;100.0;101920;;;;
2023/02/02 04:06:00;;;;;;;1.4;1.4;;;;;;;7.4;100.0;101920;;;;
2023/02/02 04:07:00;;;;;;;1.4;1.4;;;;;;;7.4;100.0;101920;;;;
2023/02/02 04:08:00;;;;;;;1.5;1.5;;;;;;;7.4;100.0;101920;;;;
2023/02/02 04:09:00;;;;;;;1.5;1.5;;;;;;;7.4;100.0;101930;;;;
2023/02/02 04:10:00;;;;;;;1.5;1.5;;;;;;;7.4;100.0;101930;;;;
2023/02/02 04:11:00;;;;;;;1.5;1.5;;;;;;;7.4;100.0;101920;;;;
2023/02/02 04:12:00;;;;;;;1.5;1.5;;;;;;;7.4;100.0;101920;;;;
2023/02/02 04:13:00;;;;;;;1.5;1.5;;;;;;;7.5;100.0;101930;;;;
2023/02/02 04:14:00;;;;;;;1.5;1.5;;;;;;;7.5;100.0;101930;;;;
2023/02/02 04:15:00;;;;;;;1.5;1.5;;;;;;;7.3;100.0;101930;;;;
2023/02/02 04:16:00;;;;;;;1.5;1.5;;;;;;;7.3;100.0;101930;;;;
2023/02/02 04:17:00;;;;;;;1.5;1.5;;;;;;;7.5;100.0;101930;;;;
2023/02/02 04:18:00;;;;;;;1.5;1.5;;;;;;;7.5;100.0;101930;;;;
2023/02/02 04:19:00;;;;;;;1.5;1.5;;;;;;;7.5;100.0;101930;;;;
2023/02/02 04:20:01;;;;;;;1.5;1.5;;;;;;;7.5;100.0;101930;;;;
2023/02/02 04:21:00;;;;;;;1.5;1.5;;;;;;;7.4;100.0;101940;;;;
2023/02/02 04:22:00;;;;;;;1.5;1.5;;;;;;;7.4;100.0;101940;;;;
2023/02/02 04:23:00;;;;;;;1.5;1.5;;;;;;;7.4;100.0;101930;;;;
2023/02/02 04:24:00;;;;;;;1.5;1.5;;;;;;;7.4;100.0;101930;;;;
2023/02/02 04:25:00;;;;;;;1.5;1.5;;;;;;;7.5;100.0;101930;;;;
2023/02/02 04:26:00;;;;;;;1.5;1.5;;;;;;;7.5;100.0;101930;;;;
2023/02/02 04:27:00;;;;;;;1.5;1.5;;;;;;;7.5;100.0;101930;;;;
2023/02/02 04:28:00;;;;;;;1.4;1.4;;;;;;;7.5;100.0;101930;;;;
2023/02/02 04:29:00;;;;;;;1.4;1.4;;;;;;;7.4;100.0;101920;;;;
2023/02/02 04:30:00;;;;;;;1.4;1.4;;;;;;;7.4;100.0;101920;;;;
2023/02/02 04:31:00;;;;;;;1.4;1.4;;;;;;;7.5;100.0;101930;;;;
2023/02/02 04:32:00;;;;;;;1.4;1.4;;;;;;;7.5;100.0;101930;;;;
2023/02/02 04:33:00;;;;;;;1.4;1.4;;;;;;;7.4;100.0;101930;;;;
2023/02/02 04:34:00;;;;;;;1.4;1.4;;;;;;;7.4;100.0;101930;;;;
2023/02/02 04:35:01;;;;;;;1.4;1.4;;;;;;;7.5;100.0;101930;;;;
2023/02/02 04:36:00;;;;;;;1.4;1.4;;;;;;;7.5;100.0;101930;;;;
2023/02/02 04:37:00;;;;;;;1.4;1.4;;;;;;;7.5;100.0;101930;;;;
2023/02/02 04:38:00;;;;;;;1.4;1.4;;;;;;;7.5;100.0;101930;;;;
2023/02/02 04:39:00;;;;;;;1.4;1.4;;;;;;;7.5;100.0;101930;;;;
2023/02/02 04:40:00;;;;;;;1.4;1.4;;;;;;;7.5;100.0;101930;;;;
2023/02/02 04:41:05;;;;;;;1.4;1.4;;;;;;;7.5;100.0;101930;;;;
2023/02/02 04:42:00;;;;;;;1.4;1.4;;;;;;;7.5;100.0;101930;;;;
2023/02/02 04:43:00;;;;;;;1.4;1.4;;;;;;;7.4;100.0;101930;;;;
2023/02/02 04:44:00;;;;;;;1.4;1.4;;;;;;;7.4;100.0;101930;;;;
2023/02/02 04:45:00;;;;;;;1.4;1.4;;;;;;;7.3;100.0;101920;;;;
2023/02/02 04:46:00;;;;;;;1.4;1.4;;;;;;;7.3;100.0;101920;;;;
2023/02/02 04:47:00;;;;;;;1.4;1.4;;;;;;;7.4;100.0;101920;;;;
2023/02/02 04:48:00;;;;;;;1.5;1.5;;;;;;;7.4;100.0;101920;;;;
2023/02/02 04:49:00;;;;;;;1.5;1.5;;;;;;;7.5;100.0;101920;;;;
2023/02/02 04:50:00;;;;;;;1.5;1.5;;;;;;;7.5;100.0;101920;;;;
2023/02/02 04:51:01;;;;;;;1.5;1.5;;;;;;;7.4;100.0;101910;;;;
2023/02/02 04:52:00;;;;;;;1.5;1.5;;;;;;;7.4;100.0;101910;;;;
2023/02/02 04:53:00;;;;;;;1.5;1.5;;;;;;;7.5;100.0;101910;;;;
2023/02/02 04:54:00;;;;;;;1.5;1.5;;;;;;;7.5;100.0;101910;;;;
2023/02/02 04:55:00;;;;;;;1.5;1.5;;;;;;;7.4;100.0;101920;;;;
2023/02/02 04:56:04;;;;;;;1.5;1.5;;;;;;;7.4;100.0;101920;;;;
2023/02/02 04:57:00;;;;;;;1.5;1.5;;;;;;;7.4;100.0;101920;;;;
2023/02/02 04:58:00;;;;;;;1.5;1.5;;;;;;;7.4;100.0;101920;;;;
2023/02/02 04:59:00;;;;;;;1.5;1.5;;;;;;;7.4;100.0;101920;;;;
2023/02/02 05:00:00;;;;;;;1.5;1.5;;;;;;;7.4;100.0;101920;;;;
2023/02/02 05:01:00;;;;;;;1.5;1.5;;;;;;;7.4;100.0;101930;;;;
2023/02/02 05:02:01;;;;;;;1.5;1.5;;;;;;;7.4;100.0;101930;;;;
2023/02/02 05:03:00;;;;;;;1.5;1.5;;;;;;;7.6;100.0;101940;;;;
2023/02/02 05:04:00;;;;;;;1.5;1.5;;;;;;;7.6;100.0;101940;;;;
2023/02/02 05:05:00;;;;;;;1.5;1.5;;;;;;;7.6;100.0;101940;;;;
2023/02/02 05:06:01;;;;;;;1.5;1.5;;;;;;;7.6;100.0;101940;;;;
2023/02/02 05:07:00;;;;;;;1.5;1.5;;;;;;;7.4;100.0;101930;;;;
2023/02/02 05:08:00;;;;;;;1.3;1.3;;;;;;;7.4;100.0;101930;;;;
2023/02/02 05:09:00;;;;;;;1.3;1.3;;;;;;;7.5;100.0;101930;;;;
2023/02/02 05:10:00;;;;;;;1.3;1.3;;;;;;;7.5;100.0;101930;;;;
2023/02/02 05:11:04;;;;;;;1.3;1.3;;;;;;;7.5;100.0;101940;;;;
2023/02/02 05:12:00;;;;;;;1.3;1.3;;;;;;;7.5;100.0;101940;;;;
2023/02/02 05:13:00;;;;;;;1.3;1.3;;;;;;;7.6;100.0;101940;;;;
2023/02/02 05:14:00;;;;;;;1.3;1.3;;;;;;;7.6;100.0;101940;;;;
2023/02/02 05:15:02;;;;;;;1.3;1.3;;;;;;;7.6;100.0;101930;;;;
2023/02/02 05:16:00;;;;;;;1.3;1.3;;;;;;;7.6;100.0;101930;;;;
2023/02/02 05:17:00;;;;;;;1.3;1.3;;;;;;;7.6;100.0;101930;;;;
2023/02/02 05:18:00;;;;;;;1.3;1.3;;;;;;;7.6;100.0;101930;;;;
2023/02/02 05:19:00;;;;;;;1.3;1.3;;;;;;;7.5;100.0;101930;;;;
2023/02/02 05:20:00;;;;;;;1.3;1.3;;;;;;;7.5;100.0;101930;;;;
2023/02/02 05:21:01;;;;;;;1.3;1.3;;;;;;;7.6;100.0;101930;;;;
2023/02/02 05:22:00;;;;;;;1.3;1.3;;;;;;;7.6;100.0;101930;;;;
2023/02/02 05:23:00;;;;;;;1.3;1.3;;;;;;;7.6;100.0;101930;;;;
2023/02/02 05:24:01;;;;;;;1.3;1.3;;;;;;;7.6;100.0;101930;;;;
2023/02/02 05:25:00;;;;;;;1.3;1.3;;;;;;;7.5;100.0;101930;;;;
2023/02/02 05:26:00;;;;;;;1.3;1.3;;;;;;;7.5;100.0;101930;;;;
2023/02/02 05:27:00;;;;;;;1.3;1.3;;;;;;;7.5;100.0;101930;;;;
2023/02/02 05:28:00;;;;;;;1.3;1.3;;;;;;;7.5;100.0;101930;;;;
2023/02/02 05:29:00;;;;;;;1.3;1.3;;;;;;;7.6;100.0;101930;;;;
2023/02/02 05:30:00;;;;;;;1.3;1.3;;;;;;;7.6;100.0;101930;;;;
2023/02/02 05:31:04;;;;;;;1.3;1.3;;;;;;;7.6;100.0;101940;;;;
2023/02/02 05:32:00;;;;;;;1.3;1.3;;;;;;;7.6;100.0;101940;;;;
2023/02/02 05:33:00;;;;;;;1.3;1.3;;;;;;;7.6;100.0;101930;;;;
2023/02/02 05:34:00;;;;;;;1.3;1.3;;;;;;;7.6;100.0;101930;;;;
2023/02/02 05:35:00;;;;;;;1.3;1.3;;;;;;;7.5;100.0;101940;;;;
2023/02/02 05:36:00;;;;;;;1.3;1.3;;;;;;;7.5;100.0;101940;;;;
2023/02/02 05:37:00;;;;;;;1.3;1.3;;;;;;;7.4;100.0;101940;;;;
2023/02/02 05:38:00;;;;;;;1.3;1.3;;;;;;;7.4;100.0;101940;;;;
2023/02/02 05:39:00;;;;;;;1.3;1.3;;;;;;;7.5;100.0;101940;;;;
2023/02/02 05:40:00;;;;;;;1.3;1.3;;;;;;;7.5;100.0;101940;;;;
2023/02/02 05:41:01;;;;;;;1.3;1.3;;;;;;;7.5;100.0;101950;;;;
2023/02/02 05:42:00;;;;;;;1.3;1.3;;;;;;;7.5;100.0;101950;;;;
2023/02/02 05:43:00;;;;;;;1.3;1.3;;;;;;;7.5;100.0;101940;;;;
2023/02/02 05:44:01;;;;;;;1.3;1.3;;;;;;;7.5;100.0;101940;;;;
2023/02/02 05:45:01;;;;;;;1.3;1.3;;;;;;;7.5;100.0;101940;;;;
2023/02/02 05:46:00;;;;;;;1.3;1.3;;;;;;;7.5;100.0;101940;;;;
2023/02/02 05:47:00;;;;;;;1.3;1.3;;;;;;;7.5;100.0;101950;;;;
2023/02/02 05:48:00;;;;;;;1.2;1.2;;;;;;;7.5;100.0;101950;;;;
2023/02/02 05:49:03;;;;;;;1.2;1.2;;;;;;;7.6;100.0;101950;;;;
2023/02/02 05:50:01;;;;;;;1.2;1.2;;;;;;;7.6;100.0;101950;;;;
2023/02/02 05:51:10;;;;;;;1.2;1.2;;;;;;;7.6;100.0;101940;;;;
2023/02/02 05:52:00;;;;;;;1.2;1.2;;;;;;;7.6;100.0;101940;;;;
2023/02/02 05:53:00;;;;;;;1.2;1.2;;;;;;;7.5;100.0;101950;;;;
2023/02/02 05:54:01;;;;;;;1.2;1.2;;;;;;;7.5;100.0;101950;;;;
2023/02/02 05:55:00;;;;;;;1.2;1.2;;;;;;;7.5;100.0;101950;;;;
2023/02/02 05:56:00;;;;;;;1.2;1.2;;;;;;;7.5;100.0;101950;;;;
2023/02/02 05:57:01;;;;;;;1.2;1.2;;;;;;;7.5;100.0;101940;;;;
2023/02/02 05:58:00;;;;;;;1.2;1.2;;;;;;;7.5;100.0;101940;;;;
2023/02/02 05:59:00;;;;;;;1.2;1.2;;;;;;;7.4;100.0;101950;;;;
2023/02/02 06:00:00;;;;;;;1.2;1.2;;;;;;;7.4;100.0;101950;;;;
2023/02/02 06:01:01;;;;;;;1.2;1.2;;;;;;;7.5;100.0;101950;;;;
2023/02/02 06:02:00;;;;;;;1.2;1.2;;;;;;;7.5;100.0;101950;;;;
2023/02/02 06:03:00;;;;;;;1.2;1.2;;;;;;;7.5;100.0;101950;;;;
2023/02/02 06:04:00;;;;;;;1.2;1.2;;;;;;;7.5;100.0;101950;;;;
2023/02/02 06:05:00;;;;;;;1.2;1.2;;;;;;;7.5;100.0;101940;;;;
2023/02/02 06:06:00;;;;;;;1.2;1.2;;;;;;;7.5;100.0;101940;;;;
2023/02/02 06:07:00;;;;;;;1.2;1.2;;;;;;;7.5;100.0;101950;;;;
2023/02/02 06:08:00;;;;;;;1.2;1.2;;;;;;;7.5;100.0;101950;;;;
2023/02/02 06:09:00;;;;;;;1.2;1.2;;;;;;;7.6;100.0;101940;;;;
2023/02/02 06:10:00;;;;;;;1.2;1.2;;;;;;;7.6;100.0;101940;;;;
2023/02/02 06:11:07;;;;;;;1.2;1.2;;;;;;;7.5;100.0;101950;;;;
2023/02/02 06:12:00;;;;;;;1.2;1.2;;;;;;;7.5;100.0;101950;;;;
2023/02/02 06:13:00;;;;;;;1.2;1.2;;;;;;;7.5;100.0;101950;;;;
2023/02/02 06:14:00;;;;;;;1.2;1.2;;;;;;;7.5;100.0;101950;;;;
2023/02/02 06:15:00;;;;;;;1.2;1.2;;;;;;;7.5;100.0;101940;;;;
2023/02/02 06:16:00;;;;;;;1.2;1.2;;;;;;;7.5;100.0;101940;;;;
2023/02/02 06:17:00;;;;;;;1.2;1.2;;;;;;;7.5;100.0;101950;;;;
2023/02/02 06:18:00;;;;;;;1.2;1.2;;;;;;;7.5;100.0;101950;;;;
2023/02/02 06:19:00;;;;;;;1.2;1.2;;;;;;;7.5;100.0;101950;;;;
2023/02/02 06:20:00;;;;;;;1.2;1.2;;;;;;;7.5;100.0;101950;;;;
2023/02/02 06:21:01;;;;;;;1.2;1.2;;;;;;;7.4;100.0;101950;;;;
2023/02/02 06:22:00;;;;;;;1.2;1.2;;;;;;;7.4;100.0;101950;;;;
2023/02/02 06:23:00;;;;;;;1.2;1.2;;;;;;;7.5;100.0;101960;;;;
2023/02/02 06:24:00;;;;;;;1.2;1.2;;;;;;;7.5;100.0;101960;;;;
2023/02/02 06:25:03;;;;;;;1.2;1.2;;;;;;;7.6;100.0;101970;;;;
2023/02/02 06:26:02;;;;;;;1.2;1.2;;;;;;;7.6;100.0;101970;;;;
2023/02/02 06:27:00;;;;;;;1.2;1.2;;;;;;;7.6;100.0;101960;;;;
2023/02/02 06:28:00;;;;;;;1.2;1.2;;;;;;;7.6;100.0;101960;;;;
2023/02/02 06:29:00;;;;;;;1.2;1.2;;;;;;;7.7;100.0;101960;;;;
2023/02/02 06:30:00;;;;;;;1.2;1.2;;;;;;;7.7;100.0;101960;;;;
2023/02/02 06:31:04;;;;;;;1.2;1.2;;;;;;;7.6;100.0;101960;;;;
2023/02/02 06:32:00;;;;;;;1.2;1.2;;;;;;;7.6;100.0;101960;;;;
2023/02/02 06:33:00;;;;;;;1.2;1.2;;;;;;;7.5;100.0;101960;;;;
2023/02/02 06:34:00;;;;;;;1.2;1.2;;;;;;;7.5;100.0;101960;;;;
2023/02/02 06:35:00;;;;;;;1.2;1.2;;;;;;;7.5;100.0;101960;;;;
2023/02/02 06:36:01;;;;;;;1.2;1.2;;;;;;;7.5;100.0;101960;;;;
2023/02/02 06:37:00;;;;;;;1.2;1.2;;;;;;;7.5;100.0;101960;;;;
2023/02/02 06:38:00;;;;;;;1.2;1.2;;;;;;;7.5;100.0;101960;;;;
2023/02/02 06:39:03;;;;;;;1.2;1.2;;;;;;;7.5;100.0;101960;;;;
2023/02/02 06:40:00;;;;;;;1.2;1.2;;;;;;;7.5;100.0;101960;;;;
2023/02/02 06:41:01;;;;;;;1.2;1.2;;;;;;;7.6;100.0;101970;;;;